UAE568 OMDB-VOBL
Flight info
| Callsign | UAE568 |
|---|---|
| Flight time | 3h 11m |
| Altitude | 39000 |
| Route | ANVIX L223 TARDI N629 TOTOX P574 BBM W78 SUSIK SUSIK7F |
| Aircraft | A388/J-SADE2E3FGHIJ3J4J5M1RWXY/LB1D1 |
Departure
| Time | 2026-05-04 11:40 |
|---|---|
| Airport | Dubai International Airport (OMDB) |
Arrival
| Time | 2026-05-04 14:52 |
|---|---|
| Airport | Kempegowda International Airport Bengaluru (VOBL) |
| Time | Latitude | Longitude | Altitude | Speed | Heading |
|---|---|---|---|---|---|
| 2026-05-04 11:22 | 25.24131 | 55.37568 | 26 ft | 0 kts | 301° |
| 2026-05-04 11:27 | 25.24086 | 55.37638 | 32 ft | 3 kts | 343° |
| 2026-05-04 11:28 | 25.24067 | 55.37640 | 32 ft | 3 kts | 20° |
| 2026-05-04 11:28 | 25.24048 | 55.37630 | 32 ft | 3 kts | 31° |
| 2026-05-04 11:28 | 25.24029 | 55.37617 | 32 ft | 3 kts | 31° |
| 2026-05-04 11:28 | 25.24018 | 55.37610 | 32 ft | 0 kts | 31° |
| 2026-05-04 11:33 | 25.24265 | 55.37775 | 26 ft | 12 kts | 32° |
| 2026-05-04 11:33 | 25.24281 | 55.37787 | 26 ft | 0 kts | 36° |
| 2026-05-04 11:33 | 25.24285 | 55.37790 | 26 ft | 3 kts | 40° |
| 2026-05-04 11:34 | 25.24298 | 55.37805 | 26 ft | 2 kts | 51° |
| 2026-05-04 11:34 | 25.24308 | 55.37826 | 26 ft | 4 kts | 77° |
| 2026-05-04 11:34 | 25.24310 | 55.37855 | 27 ft | 0 kts | 89° |
| 2026-05-04 11:34 | 25.24308 | 55.37870 | 27 ft | 3 kts | 105° |
| 2026-05-04 11:35 | 25.24302 | 55.37888 | 27 ft | 5 kts | 112° |
| 2026-05-04 11:35 | 25.24254 | 55.37948 | 27 ft | 11 kts | 137° |
| 2026-05-04 11:35 | 25.24216 | 55.38004 | 27 ft | 10 kts | 97° |
| 2026-05-04 11:35 | 25.24251 | 55.38076 | 29 ft | 12 kts | 40° |
| 2026-05-04 11:36 | 25.24326 | 55.38133 | 31 ft | 14 kts | 33° |
| 2026-05-04 11:36 | 25.24416 | 55.38197 | 29 ft | 18 kts | 32° |
| 2026-05-04 11:36 | 25.24488 | 55.38246 | 27 ft | 8 kts | 32° |
| 2026-05-04 11:36 | 25.24510 | 55.38261 | 27 ft | 3 kts | 31° |
| 2026-05-04 11:37 | 25.24548 | 55.38286 | 27 ft | 9 kts | 30° |
| 2026-05-04 11:37 | 25.24602 | 55.38320 | 27 ft | 9 kts | 28° |
| 2026-05-04 11:37 | 25.24619 | 55.38327 | 27 ft | 2 kts | 7° |
| 2026-05-04 11:37 | 25.24632 | 55.38328 | 27 ft | 2 kts | 354° |
| 2026-05-04 11:38 | 25.24645 | 55.38325 | 27 ft | 4 kts | 338° |
| 2026-05-04 11:38 | 25.24663 | 55.38311 | 27 ft | 4 kts | 310° |
| 2026-05-04 11:38 | 25.24676 | 55.38282 | 27 ft | 5 kts | 286° |
| 2026-05-04 11:38 | 25.24686 | 55.38248 | 28 ft | 5 kts | 292° |
| 2026-05-04 11:39 | 25.24704 | 55.38210 | 28 ft | 9 kts | 300° |
| 2026-05-04 11:39 | 25.24871 | 55.37904 | 30 ft | 86 kts | 301° |
| 2026-05-04 11:40 | 25.28196 | 55.31887 | 2069 ft | 183 kts | 302° |
| 2026-05-04 11:41 | 25.28873 | 55.30690 | 2447 ft | 185 kts | 303° |
| 2026-05-04 11:41 | 25.29332 | 55.29349 | 2746 ft | 194 kts | 275° |
| 2026-05-04 11:41 | 25.29023 | 55.27844 | 2904 ft | 212 kts | 249° |
| 2026-05-04 11:41 | 25.28334 | 55.26295 | 3124 ft | 235 kts | 245° |
| 2026-05-04 11:42 | 25.27576 | 55.24645 | 3680 ft | 243 kts | 246° |
| 2026-05-04 11:42 | 25.26821 | 55.22970 | 4445 ft | 245 kts | 246° |
| 2026-05-04 11:42 | 25.26075 | 55.21265 | 5132 ft | 248 kts | 247° |
| 2026-05-04 11:42 | 25.25333 | 55.19537 | 5907 ft | 249 kts | 247° |
| 2026-05-04 11:43 | 25.24475 | 55.17864 | 6614 ft | 255 kts | 231° |
| 2026-05-04 11:43 | 25.23020 | 55.16729 | 7331 ft | 262 kts | 202° |
| 2026-05-04 11:43 | 25.21202 | 55.16431 | 8042 ft | 270 kts | 180° |
| 2026-05-04 11:43 | 25.19306 | 55.16809 | 8461 ft | 288 kts | 157° |
| 2026-05-04 11:44 | 25.17670 | 55.18102 | 9081 ft | 293 kts | 129° |
| 2026-05-04 11:44 | 25.16588 | 55.20014 | 9687 ft | 300 kts | 114° |
| 2026-05-04 11:44 | 25.15727 | 55.22142 | 9940 ft | 317 kts | 111° |
| 2026-05-04 11:44 | 25.14832 | 55.24392 | 10565 ft | 320 kts | 112° |
| 2026-05-04 11:45 | 25.13876 | 55.26615 | 11235 ft | 322 kts | 115° |
| 2026-05-04 11:45 | 25.12868 | 55.28815 | 11935 ft | 323 kts | 116° |
| 2026-05-04 11:45 | 25.11817 | 55.31033 | 12578 ft | 326 kts | 116° |
| 2026-05-04 11:45 | 25.10751 | 55.33256 | 13178 ft | 329 kts | 115° |
| 2026-05-04 11:46 | 25.09798 | 55.35550 | 13807 ft | 330 kts | 112° |
| 2026-05-04 11:46 | 25.08847 | 55.37868 | 14380 ft | 333 kts | 112° |
| 2026-05-04 11:46 | 25.07881 | 55.40210 | 14900 ft | 337 kts | 113° |
| 2026-05-04 11:46 | 25.06906 | 55.42576 | 15419 ft | 342 kts | 112° |
| 2026-05-04 11:47 | 25.05940 | 55.45037 | 15584 ft | 359 kts | 111° |
| 2026-05-04 11:47 | 25.04955 | 55.47630 | 15738 ft | 375 kts | 111° |
| 2026-05-04 11:47 | 25.03925 | 55.50344 | 15910 ft | 391 kts | 111° |
| 2026-05-04 11:47 | 25.02862 | 55.53126 | 16353 ft | 396 kts | 111° |
| 2026-05-04 11:48 | 25.01718 | 55.55895 | 16912 ft | 400 kts | 117° |
| 2026-05-04 11:48 | 25.00297 | 55.58545 | 17439 ft | 403 kts | 120° |
| 2026-05-04 11:48 | 24.98843 | 55.61213 | 17976 ft | 407 kts | 119° |
| 2026-05-04 11:48 | 24.97388 | 55.63901 | 18438 ft | 410 kts | 120° |
| 2026-05-04 11:49 | 24.95929 | 55.66603 | 18925 ft | 412 kts | 120° |
| 2026-05-04 11:49 | 24.94455 | 55.69328 | 19348 ft | 415 kts | 121° |
| 2026-05-04 11:49 | 24.92804 | 55.71949 | 19782 ft | 418 kts | 126° |
| 2026-05-04 11:49 | 24.91075 | 55.74537 | 20237 ft | 421 kts | 126° |
| 2026-05-04 11:50 | 24.89342 | 55.77146 | 20679 ft | 423 kts | 126° |
| 2026-05-04 11:50 | 24.87604 | 55.79768 | 21093 ft | 426 kts | 126° |
| 2026-05-04 11:50 | 24.85852 | 55.82412 | 21539 ft | 429 kts | 126° |
| 2026-05-04 11:50 | 24.84086 | 55.85073 | 21943 ft | 433 kts | 126° |
| 2026-05-04 11:51 | 24.82291 | 55.87753 | 22358 ft | 436 kts | 127° |
| 2026-05-04 11:51 | 24.80477 | 55.90428 | 22813 ft | 437 kts | 127° |
| 2026-05-04 11:51 | 24.78626 | 55.93098 | 23288 ft | 438 kts | 131° |
| 2026-05-04 11:51 | 24.76535 | 55.95541 | 23595 ft | 441 kts | 139° |
| 2026-05-04 11:52 | 24.74300 | 55.97797 | 23956 ft | 443 kts | 139° |
| 2026-05-04 11:52 | 24.72002 | 56.00144 | 24270 ft | 446 kts | 139° |
| 2026-05-04 11:52 | 24.69734 | 56.02476 | 24657 ft | 448 kts | 139° |
| 2026-05-04 11:52 | 24.67475 | 56.04802 | 24948 ft | 452 kts | 139° |
| 2026-05-04 11:53 | 24.65176 | 56.07171 | 25280 ft | 455 kts | 139° |
| 2026-05-04 11:53 | 24.62860 | 56.09557 | 25650 ft | 457 kts | 139° |
| 2026-05-04 11:53 | 24.60542 | 56.11945 | 25961 ft | 461 kts | 139° |
| 2026-05-04 11:53 | 24.58192 | 56.14361 | 26306 ft | 464 kts | 139° |
| 2026-05-04 11:55 | 24.42894 | 56.33585 | 28783 ft | 491 kts | 133° |
| 2026-05-04 11:55 | 24.40651 | 56.36433 | 29148 ft | 495 kts | 133° |
| 2026-05-04 11:56 | 24.38391 | 56.39303 | 29532 ft | 499 kts | 133° |
| 2026-05-04 11:56 | 24.36119 | 56.42186 | 29879 ft | 503 kts | 133° |
| 2026-05-04 11:56 | 24.33824 | 56.45097 | 30266 ft | 506 kts | 133° |
| 2026-05-04 11:56 | 24.31512 | 56.48027 | 30661 ft | 508 kts | 133° |
| 2026-05-04 11:57 | 24.29248 | 56.51018 | 31037 ft | 513 kts | 128° |
| 2026-05-04 11:57 | 24.27150 | 56.54196 | 31418 ft | 516 kts | 128° |
| 2026-05-04 11:57 | 24.25044 | 56.57386 | 31815 ft | 518 kts | 128° |
| 2026-05-04 11:57 | 24.22919 | 56.60593 | 32148 ft | 523 kts | 128° |
| 2026-05-04 11:58 | 24.20768 | 56.63830 | 32518 ft | 526 kts | 128° |
| 2026-05-04 11:58 | 24.18612 | 56.67073 | 32933 ft | 528 kts | 128° |
| 2026-05-04 11:58 | 24.16445 | 56.70329 | 33318 ft | 531 kts | 128° |
| 2026-05-04 11:58 | 24.14261 | 56.73609 | 33697 ft | 534 kts | 128° |
| 2026-05-04 11:59 | 24.12066 | 56.76902 | 34042 ft | 537 kts | 128° |
| 2026-05-04 11:59 | 24.09864 | 56.80205 | 34409 ft | 539 kts | 128° |
| 2026-05-04 11:59 | 24.07648 | 56.83526 | 34835 ft | 539 kts | 128° |
| 2026-05-04 11:59 | 24.05440 | 56.86835 | 35337 ft | 537 kts | 128° |
| 2026-05-04 12:00 | 24.03245 | 56.90119 | 35891 ft | 534 kts | 128° |
| 2026-05-04 12:00 | 24.01056 | 56.93395 | 36405 ft | 533 kts | 128° |
| 2026-05-04 12:00 | 23.98877 | 56.96655 | 36869 ft | 531 kts | 128° |
| 2026-05-04 12:00 | 23.96700 | 56.99906 | 37389 ft | 530 kts | 128° |
| 2026-05-04 12:01 | 23.95256 | 57.02064 | 37711 ft | 528 kts | 128° |
| 2026-05-04 12:01 | 23.93086 | 57.05303 | 38217 ft | 527 kts | 128° |
| 2026-05-04 12:02 | 23.80087 | 57.24655 | 38743 ft | 526 kts | 127° |
| 2026-05-04 12:03 | 23.75754 | 57.31089 | 38733 ft | 527 kts | 127° |
| 2026-05-04 12:03 | 23.71406 | 57.37532 | 38749 ft | 526 kts | 128° |
| 2026-05-04 12:04 | 23.66871 | 57.43797 | 38738 ft | 527 kts | 130° |
| 2026-05-04 12:04 | 23.62286 | 57.50021 | 38758 ft | 526 kts | 130° |
| 2026-05-04 12:05 | 23.57732 | 57.56255 | 38780 ft | 525 kts | 129° |
| 2026-05-04 12:05 | 23.53190 | 57.62486 | 38764 ft | 525 kts | 129° |
| 2026-05-04 12:06 | 23.48648 | 57.68710 | 38777 ft | 525 kts | 130° |
| 2026-05-04 12:06 | 23.44103 | 57.74922 | 38771 ft | 524 kts | 130° |
| 2026-05-04 12:07 | 23.39554 | 57.81127 | 38792 ft | 524 kts | 130° |
| 2026-05-04 12:07 | 23.35009 | 57.87323 | 38777 ft | 524 kts | 130° |
| 2026-05-04 12:08 | 23.30464 | 57.93510 | 38768 ft | 522 kts | 130° |
| 2026-05-04 12:08 | 23.25954 | 57.99641 | 38758 ft | 522 kts | 130° |
| 2026-05-04 12:09 | 23.21710 | 58.06049 | 38758 ft | 522 kts | 125° |
| 2026-05-04 12:09 | 23.17609 | 58.12562 | 38759 ft | 522 kts | 125° |
| 2026-05-04 12:10 | 23.13502 | 58.19056 | 38760 ft | 522 kts | 125° |
| 2026-05-04 12:10 | 23.09379 | 58.25566 | 38760 ft | 522 kts | 125° |
| 2026-05-04 12:11 | 23.05264 | 58.32060 | 38757 ft | 523 kts | 124° |
| 2026-05-04 12:11 | 23.01728 | 58.38942 | 38763 ft | 522 kts | 114° |
| 2026-05-04 12:12 | 22.99299 | 58.46354 | 38757 ft | 521 kts | 106° |
| 2026-05-04 12:12 | 22.97213 | 58.53874 | 38748 ft | 521 kts | 107° |
| 2026-05-04 12:14 | 22.88745 | 58.83902 | 38738 ft | 521 kts | 107° |
| 2026-05-04 12:15 | 22.86623 | 58.91397 | 38759 ft | 519 kts | 107° |
| 2026-05-04 12:15 | 22.84501 | 58.98876 | 38753 ft | 519 kts | 107° |
| 2026-05-04 12:16 | 22.82380 | 59.06336 | 38751 ft | 518 kts | 107° |
| 2026-05-04 12:16 | 22.80253 | 59.13800 | 38748 ft | 518 kts | 107° |
| 2026-05-04 12:17 | 22.78128 | 59.21248 | 38739 ft | 517 kts | 107° |
| 2026-05-04 12:17 | 22.75997 | 59.28701 | 38735 ft | 518 kts | 107° |
| 2026-05-04 12:18 | 22.73863 | 59.36148 | 38726 ft | 518 kts | 107° |
| 2026-05-04 12:18 | 22.71724 | 59.43596 | 38720 ft | 518 kts | 107° |
| 2026-05-04 12:19 | 22.69581 | 59.51047 | 38711 ft | 518 kts | 107° |
| 2026-05-04 12:19 | 22.67437 | 59.58488 | 38712 ft | 518 kts | 107° |
| 2026-05-04 12:20 | 22.65287 | 59.65933 | 38703 ft | 518 kts | 107° |
| 2026-05-04 12:20 | 22.63130 | 59.73390 | 38705 ft | 519 kts | 107° |
| 2026-05-04 12:21 | 22.60971 | 59.80841 | 38706 ft | 519 kts | 107° |
| 2026-05-04 12:21 | 22.58808 | 59.88293 | 38707 ft | 519 kts | 107° |
| 2026-05-04 12:22 | 22.56642 | 59.95751 | 38707 ft | 520 kts | 107° |
| 2026-05-04 12:22 | 22.54478 | 60.03189 | 38716 ft | 519 kts | 107° |
| 2026-05-04 12:23 | 22.52307 | 60.10633 | 38715 ft | 518 kts | 107° |
| 2026-05-04 12:23 | 22.50134 | 60.18070 | 38715 ft | 518 kts | 107° |
| 2026-05-04 12:24 | 22.47960 | 60.25495 | 38706 ft | 518 kts | 107° |
| 2026-05-04 12:24 | 22.45782 | 60.32920 | 38703 ft | 518 kts | 107° |
| 2026-05-04 12:25 | 22.43618 | 60.40280 | 38701 ft | 518 kts | 107° |
| 2026-05-04 12:25 | 22.41431 | 60.47709 | 38708 ft | 518 kts | 107° |
| 2026-05-04 12:26 | 22.39244 | 60.55124 | 38705 ft | 519 kts | 107° |
| 2026-05-04 12:26 | 22.37048 | 60.62554 | 38709 ft | 519 kts | 107° |
| 2026-05-04 12:27 | 22.34849 | 60.69979 | 38713 ft | 519 kts | 108° |
| 2026-05-04 12:27 | 22.32646 | 60.77406 | 38708 ft | 520 kts | 108° |
| 2026-05-04 12:28 | 22.30436 | 60.84844 | 38712 ft | 520 kts | 108° |
| 2026-05-04 12:28 | 22.28217 | 60.92296 | 38715 ft | 521 kts | 108° |
| 2026-05-04 12:29 | 22.26000 | 60.99727 | 38717 ft | 521 kts | 108° |
| 2026-05-04 12:29 | 22.23774 | 61.07178 | 38710 ft | 522 kts | 108° |
| 2026-05-04 12:30 | 22.21543 | 61.14632 | 38725 ft | 521 kts | 108° |
| 2026-05-04 12:30 | 22.19326 | 61.22024 | 38723 ft | 521 kts | 108° |
| 2026-05-04 12:31 | 22.17077 | 61.29506 | 38719 ft | 521 kts | 108° |
| 2026-05-04 12:31 | 22.14855 | 61.36888 | 38718 ft | 520 kts | 108° |
| 2026-05-04 12:32 | 22.11498 | 61.48014 | 38714 ft | 520 kts | 108° |
| 2026-05-04 12:33 | 22.09244 | 61.55466 | 38715 ft | 520 kts | 108° |
| 2026-05-04 12:33 | 22.06998 | 61.62882 | 38715 ft | 520 kts | 108° |
| 2026-05-04 12:34 | 22.04766 | 61.70235 | 38707 ft | 520 kts | 108° |
| 2026-05-04 12:34 | 22.02521 | 61.77622 | 38729 ft | 519 kts | 108° |
| 2026-05-04 12:35 | 22.00274 | 61.84999 | 38726 ft | 518 kts | 108° |
| 2026-05-04 12:35 | 21.98022 | 61.92377 | 38728 ft | 518 kts | 109° |
| 2026-05-04 12:36 | 21.95768 | 61.99750 | 38713 ft | 518 kts | 109° |
| 2026-05-04 12:36 | 21.93514 | 62.07113 | 38719 ft | 518 kts | 109° |
| 2026-05-04 12:37 | 21.91252 | 62.14484 | 38722 ft | 518 kts | 109° |
| 2026-05-04 12:37 | 21.88990 | 62.21847 | 38725 ft | 518 kts | 109° |
| 2026-05-04 12:38 | 21.86720 | 62.29220 | 38710 ft | 519 kts | 109° |
| 2026-05-04 12:38 | 21.84387 | 62.36565 | 38729 ft | 519 kts | 112° |
| 2026-05-04 12:39 | 21.81274 | 62.43565 | 38732 ft | 518 kts | 118° |
| 2026-05-04 12:39 | 21.77972 | 62.50455 | 38733 ft | 518 kts | 118° |
| 2026-05-04 12:40 | 21.74681 | 62.57356 | 38729 ft | 519 kts | 118° |
| 2026-05-04 12:40 | 21.71379 | 62.64261 | 38731 ft | 519 kts | 118° |
| 2026-05-04 12:41 | 21.68072 | 62.71162 | 38738 ft | 519 kts | 118° |
| 2026-05-04 12:41 | 21.64757 | 62.78070 | 38746 ft | 519 kts | 118° |
| 2026-05-04 12:42 | 21.61447 | 62.84958 | 38745 ft | 519 kts | 118° |
| 2026-05-04 12:42 | 21.58135 | 62.91840 | 38742 ft | 518 kts | 118° |
| 2026-05-04 12:43 | 21.54821 | 62.98719 | 38741 ft | 518 kts | 118° |
| 2026-05-04 12:43 | 21.51507 | 63.05587 | 38742 ft | 518 kts | 118° |
| 2026-05-04 12:44 | 21.48195 | 63.12444 | 38739 ft | 518 kts | 118° |
| 2026-05-04 12:44 | 21.44874 | 63.19309 | 38731 ft | 518 kts | 118° |
| 2026-05-04 12:45 | 21.41556 | 63.26160 | 38747 ft | 517 kts | 118° |
| 2026-05-04 12:45 | 21.38258 | 63.32961 | 38746 ft | 517 kts | 118° |
| 2026-05-04 12:46 | 21.34934 | 63.39805 | 38746 ft | 517 kts | 118° |
| 2026-05-04 12:46 | 21.31611 | 63.46639 | 38738 ft | 517 kts | 118° |
| 2026-05-04 12:47 | 21.28285 | 63.53471 | 38738 ft | 517 kts | 118° |
| 2026-05-04 12:47 | 21.24953 | 63.60307 | 38740 ft | 517 kts | 118° |
| 2026-05-04 12:48 | 21.22160 | 63.66030 | 38735 ft | 517 kts | 118° |
| 2026-05-04 12:48 | 21.18824 | 63.72858 | 38756 ft | 516 kts | 118° |
| 2026-05-04 12:49 | 21.15493 | 63.79666 | 38750 ft | 516 kts | 118° |
| 2026-05-04 12:49 | 21.12180 | 63.86430 | 38746 ft | 516 kts | 119° |
| 2026-05-04 12:50 | 21.08844 | 63.93231 | 38742 ft | 516 kts | 119° |
| 2026-05-04 12:50 | 21.05505 | 64.00030 | 38743 ft | 516 kts | 119° |
| 2026-05-04 12:51 | 21.02164 | 64.06824 | 38741 ft | 516 kts | 119° |
| 2026-05-04 12:51 | 20.98816 | 64.13625 | 38751 ft | 516 kts | 119° |
| 2026-05-04 12:52 | 20.95469 | 64.20415 | 38757 ft | 516 kts | 119° |
| 2026-05-04 12:52 | 20.92124 | 64.27193 | 38756 ft | 515 kts | 119° |
| 2026-05-04 12:53 | 20.88777 | 64.33967 | 38754 ft | 515 kts | 119° |
| 2026-05-04 12:53 | 20.85425 | 64.40739 | 38751 ft | 515 kts | 119° |
| 2026-05-04 12:54 | 20.82077 | 64.47498 | 38748 ft | 515 kts | 119° |
| 2026-05-04 12:54 | 20.78720 | 64.54266 | 38748 ft | 515 kts | 119° |
| 2026-05-04 12:55 | 20.75366 | 64.61020 | 38766 ft | 514 kts | 119° |
| 2026-05-04 12:55 | 20.72012 | 64.67765 | 38761 ft | 514 kts | 119° |
| 2026-05-04 12:56 | 20.68662 | 64.74495 | 38763 ft | 513 kts | 119° |
| 2026-05-04 12:56 | 20.65303 | 64.81235 | 38758 ft | 513 kts | 119° |
| 2026-05-04 12:57 | 20.61953 | 64.87947 | 38754 ft | 513 kts | 119° |
| 2026-05-04 12:57 | 20.58597 | 64.94666 | 38753 ft | 512 kts | 119° |
| 2026-05-04 12:58 | 20.55244 | 65.01374 | 38745 ft | 513 kts | 118° |
| 2026-05-04 12:58 | 20.51938 | 65.08106 | 38766 ft | 512 kts | 118° |
| 2026-05-04 12:59 | 20.48645 | 65.14840 | 38766 ft | 512 kts | 118° |
| 2026-05-04 12:59 | 20.45343 | 65.21573 | 38763 ft | 512 kts | 118° |
| 2026-05-04 13:00 | 20.42041 | 65.28289 | 38760 ft | 511 kts | 118° |
| 2026-05-04 13:00 | 20.38734 | 65.35005 | 38749 ft | 512 kts | 118° |
| 2026-05-04 13:01 | 20.35419 | 65.41729 | 38754 ft | 512 kts | 118° |
| 2026-05-04 13:01 | 20.32107 | 65.48438 | 38757 ft | 513 kts | 118° |
| 2026-05-04 13:02 | 20.28778 | 65.55174 | 38761 ft | 513 kts | 118° |
| 2026-05-04 13:02 | 20.25452 | 65.61897 | 38768 ft | 514 kts | 118° |
| 2026-05-04 13:03 | 20.22115 | 65.68633 | 38762 ft | 514 kts | 118° |
| 2026-05-04 13:03 | 20.18774 | 65.75370 | 38764 ft | 515 kts | 118° |
| 2026-05-04 13:04 | 20.15428 | 65.82108 | 38768 ft | 515 kts | 118° |
| 2026-05-04 13:04 | 20.12079 | 65.88843 | 38767 ft | 515 kts | 118° |
| 2026-05-04 13:05 | 20.08748 | 65.95536 | 38755 ft | 515 kts | 118° |
| 2026-05-04 13:05 | 20.05393 | 66.02268 | 38784 ft | 515 kts | 118° |
| 2026-05-04 13:06 | 20.02042 | 66.08983 | 38792 ft | 514 kts | 118° |
| 2026-05-04 13:06 | 19.98689 | 66.15697 | 38784 ft | 514 kts | 118° |
| 2026-05-04 13:07 | 19.95334 | 66.22404 | 38767 ft | 513 kts | 118° |
| 2026-05-04 13:07 | 19.91985 | 66.29093 | 38754 ft | 513 kts | 118° |
| 2026-05-04 13:08 | 19.88626 | 66.35794 | 38758 ft | 513 kts | 118° |
| 2026-05-04 13:08 | 19.85268 | 66.42484 | 38761 ft | 514 kts | 118° |
| 2026-05-04 13:09 | 19.81902 | 66.49182 | 38787 ft | 514 kts | 118° |
| 2026-05-04 13:09 | 19.78536 | 66.55874 | 38769 ft | 513 kts | 118° |
| 2026-05-04 13:10 | 19.75172 | 66.62553 | 38773 ft | 513 kts | 118° |
| 2026-05-04 13:10 | 19.71800 | 66.69242 | 38770 ft | 513 kts | 118° |
| 2026-05-04 13:11 | 19.68430 | 66.75919 | 38764 ft | 513 kts | 118° |
| 2026-05-04 13:11 | 19.65059 | 66.82590 | 38773 ft | 513 kts | 118° |
| 2026-05-04 13:12 | 19.61687 | 66.89257 | 38770 ft | 513 kts | 118° |
| 2026-05-04 13:12 | 19.58309 | 66.95928 | 38762 ft | 514 kts | 118° |
| 2026-05-04 13:13 | 19.54929 | 67.02594 | 38784 ft | 513 kts | 118° |
| 2026-05-04 13:13 | 19.51544 | 67.09264 | 38786 ft | 513 kts | 118° |
| 2026-05-04 13:14 | 19.48165 | 67.15913 | 38786 ft | 513 kts | 118° |
| 2026-05-04 13:14 | 19.44778 | 67.22571 | 38772 ft | 513 kts | 118° |
| 2026-05-04 13:15 | 19.41393 | 67.29219 | 38767 ft | 513 kts | 118° |
| 2026-05-04 13:15 | 19.38005 | 67.35864 | 38774 ft | 513 kts | 118° |
| 2026-05-04 13:16 | 19.34614 | 67.42507 | 38777 ft | 514 kts | 119° |
| 2026-05-04 13:16 | 19.31232 | 67.49125 | 38795 ft | 513 kts | 118° |
| 2026-05-04 13:17 | 19.27839 | 67.55757 | 38792 ft | 513 kts | 118° |
| 2026-05-04 13:17 | 19.24435 | 67.62403 | 38774 ft | 513 kts | 118° |
| 2026-05-04 13:18 | 19.21037 | 67.69030 | 38774 ft | 513 kts | 119° |
| 2026-05-04 13:18 | 19.17634 | 67.75661 | 38774 ft | 513 kts | 119° |
| 2026-05-04 13:19 | 19.14232 | 67.82281 | 38772 ft | 513 kts | 119° |
| 2026-05-04 13:19 | 19.10824 | 67.88905 | 38782 ft | 513 kts | 119° |
| 2026-05-04 13:20 | 19.07415 | 67.95527 | 38796 ft | 512 kts | 119° |
| 2026-05-04 13:20 | 19.04014 | 68.02138 | 38792 ft | 512 kts | 118° |
| 2026-05-04 13:21 | 19.00668 | 68.08791 | 38782 ft | 512 kts | 118° |
| 2026-05-04 13:21 | 18.97335 | 68.15431 | 38791 ft | 511 kts | 118° |
| 2026-05-04 13:22 | 18.93995 | 68.22060 | 38776 ft | 511 kts | 118° |
| 2026-05-04 13:22 | 18.90648 | 68.28689 | 38774 ft | 512 kts | 118° |
| 2026-05-04 13:23 | 18.87299 | 68.35313 | 38779 ft | 512 kts | 118° |
| 2026-05-04 13:23 | 18.83949 | 68.41933 | 38788 ft | 512 kts | 118° |
| 2026-05-04 13:24 | 18.80588 | 68.48568 | 38793 ft | 512 kts | 118° |
| 2026-05-04 13:24 | 18.77232 | 68.55186 | 38789 ft | 512 kts | 118° |
| 2026-05-04 13:25 | 18.72184 | 68.65125 | 38791 ft | 512 kts | 118° |
| 2026-05-04 13:25 | 18.68817 | 68.71746 | 38791 ft | 512 kts | 118° |
| 2026-05-04 13:26 | 18.65448 | 68.78364 | 38796 ft | 513 kts | 118° |
| 2026-05-04 13:26 | 18.62071 | 68.84992 | 38796 ft | 513 kts | 118° |
| 2026-05-04 13:27 | 18.58691 | 68.91615 | 38790 ft | 514 kts | 118° |
| 2026-05-04 13:27 | 18.55300 | 68.98254 | 38803 ft | 514 kts | 118° |
| 2026-05-04 13:28 | 18.51917 | 69.04872 | 38811 ft | 514 kts | 118° |
| 2026-05-04 13:28 | 18.48545 | 69.11459 | 38809 ft | 513 kts | 118° |
| 2026-05-04 13:29 | 18.45157 | 69.18072 | 38805 ft | 513 kts | 118° |
| 2026-05-04 13:29 | 18.41760 | 69.24694 | 38795 ft | 514 kts | 118° |
| 2026-05-04 13:30 | 18.38367 | 69.31309 | 38796 ft | 514 kts | 118° |
| 2026-05-04 13:30 | 18.35223 | 69.38071 | 38807 ft | 514 kts | 115° |
| 2026-05-04 13:31 | 18.32152 | 69.44856 | 38801 ft | 514 kts | 116° |
| 2026-05-04 13:31 | 18.29037 | 69.51629 | 38810 ft | 514 kts | 116° |
| 2026-05-04 13:32 | 18.25904 | 69.58395 | 38804 ft | 514 kts | 116° |
| 2026-05-04 13:32 | 18.22773 | 69.65149 | 38811 ft | 514 kts | 116° |
| 2026-05-04 13:33 | 18.20165 | 69.70771 | 38807 ft | 514 kts | 116° |
| 2026-05-04 13:33 | 18.17029 | 69.77521 | 38809 ft | 514 kts | 116° |
| 2026-05-04 13:34 | 18.13874 | 69.84309 | 38813 ft | 514 kts | 116° |
| 2026-05-04 13:34 | 18.10728 | 69.91067 | 38806 ft | 514 kts | 116° |
| 2026-05-04 13:35 | 18.06027 | 70.01152 | 38805 ft | 514 kts | 116° |
| 2026-05-04 13:36 | 18.02878 | 70.07898 | 38824 ft | 514 kts | 116° |
| 2026-05-04 13:36 | 17.99728 | 70.14639 | 38820 ft | 513 kts | 116° |
| 2026-05-04 13:37 | 17.96581 | 70.21365 | 38809 ft | 513 kts | 116° |
| 2026-05-04 13:37 | 17.93433 | 70.28088 | 38811 ft | 513 kts | 116° |
| 2026-05-04 13:38 | 17.90281 | 70.34812 | 38813 ft | 513 kts | 116° |
| 2026-05-04 13:38 | 17.87130 | 70.41527 | 38818 ft | 513 kts | 116° |
| 2026-05-04 13:39 | 17.83973 | 70.48245 | 38820 ft | 513 kts | 116° |
| 2026-05-04 13:39 | 17.80816 | 70.54958 | 38815 ft | 513 kts | 116° |
| 2026-05-04 13:40 | 17.77653 | 70.61675 | 38807 ft | 513 kts | 116° |
| 2026-05-04 13:40 | 17.74485 | 70.68390 | 38811 ft | 514 kts | 116° |
| 2026-05-04 13:41 | 17.71319 | 70.75095 | 38816 ft | 514 kts | 116° |
| 2026-05-04 13:41 | 17.68143 | 70.81814 | 38820 ft | 514 kts | 116° |
| 2026-05-04 13:42 | 17.63377 | 70.91884 | 38813 ft | 514 kts | 117° |
| 2026-05-04 13:42 | 17.60194 | 70.98600 | 38818 ft | 515 kts | 117° |
| 2026-05-04 13:43 | 17.57006 | 71.05321 | 38821 ft | 515 kts | 117° |
| 2026-05-04 13:43 | 17.53816 | 71.12037 | 38820 ft | 515 kts | 117° |
| 2026-05-04 13:44 | 17.50620 | 71.18759 | 38831 ft | 514 kts | 117° |
| 2026-05-04 13:44 | 17.47437 | 71.25447 | 38841 ft | 513 kts | 117° |
| 2026-05-04 13:45 | 17.44250 | 71.32136 | 38830 ft | 512 kts | 117° |
| 2026-05-04 13:45 | 17.41074 | 71.38796 | 38820 ft | 511 kts | 117° |
| 2026-05-04 13:46 | 17.37899 | 71.45445 | 38820 ft | 510 kts | 117° |
| 2026-05-04 13:46 | 17.34729 | 71.52079 | 38814 ft | 509 kts | 117° |
| 2026-05-04 13:47 | 17.31557 | 71.58707 | 38802 ft | 509 kts | 117° |
| 2026-05-04 13:47 | 17.28386 | 71.65324 | 38808 ft | 509 kts | 117° |
| 2026-05-04 13:48 | 17.25210 | 71.71949 | 38807 ft | 510 kts | 117° |
| 2026-05-04 13:48 | 17.22030 | 71.78573 | 38828 ft | 510 kts | 117° |
| 2026-05-04 13:49 | 17.18846 | 71.85197 | 38834 ft | 509 kts | 117° |
| 2026-05-04 13:49 | 17.15667 | 71.91807 | 38832 ft | 509 kts | 117° |
| 2026-05-04 13:50 | 17.12484 | 71.98419 | 38823 ft | 509 kts | 117° |
| 2026-05-04 13:50 | 17.09302 | 72.05019 | 38816 ft | 509 kts | 117° |
| 2026-05-04 13:51 | 17.06166 | 72.11642 | 38821 ft | 509 kts | 116° |
| 2026-05-04 13:51 | 17.03064 | 72.18282 | 38822 ft | 508 kts | 116° |
| 2026-05-04 13:52 | 16.98387 | 72.28239 | 38825 ft | 509 kts | 116° |
| 2026-05-04 13:53 | 16.95260 | 72.34877 | 38818 ft | 509 kts | 116° |
| 2026-05-04 13:53 | 16.92137 | 72.41501 | 38839 ft | 508 kts | 116° |
| 2026-05-04 13:54 | 16.87455 | 72.51419 | 38830 ft | 507 kts | 116° |
| 2026-05-04 13:55 | 16.82780 | 72.61308 | 38825 ft | 507 kts | 116° |
| 2026-05-04 13:55 | 16.78098 | 72.71197 | 38822 ft | 506 kts | 116° |
| 2026-05-04 13:56 | 16.74971 | 72.77793 | 38823 ft | 506 kts | 116° |
| 2026-05-04 13:57 | 16.70285 | 72.87665 | 38826 ft | 506 kts | 116° |
| 2026-05-04 13:58 | 16.64030 | 73.00820 | 38842 ft | 505 kts | 116° |
| 2026-05-04 13:58 | 16.59345 | 73.10657 | 38841 ft | 505 kts | 116° |
| 2026-05-04 13:59 | 16.56178 | 73.17131 | 38836 ft | 504 kts | 117° |
| 2026-05-04 14:00 | 16.51338 | 73.26863 | 38843 ft | 504 kts | 117° |
| 2026-05-04 14:00 | 16.46515 | 73.36595 | 38836 ft | 505 kts | 117° |
| 2026-05-04 14:01 | 16.43285 | 73.43110 | 38859 ft | 505 kts | 117° |
| 2026-05-04 14:02 | 16.38441 | 73.52865 | 38871 ft | 506 kts | 117° |
| 2026-05-04 14:02 | 16.35229 | 73.59369 | 38881 ft | 505 kts | 117° |
| 2026-05-04 14:03 | 16.32100 | 73.65905 | 38903 ft | 504 kts | 117° |
| 2026-05-04 14:03 | 16.28963 | 73.72447 | 38879 ft | 505 kts | 117° |
| 2026-05-04 14:04 | 16.24233 | 73.82260 | 38880 ft | 506 kts | 117° |
| 2026-05-04 14:04 | 16.21077 | 73.88795 | 38891 ft | 506 kts | 117° |
| 2026-05-04 14:05 | 16.16345 | 73.98618 | 38912 ft | 506 kts | 117° |
| 2026-05-04 14:06 | 16.13193 | 74.05167 | 38899 ft | 506 kts | 117° |
| 2026-05-04 14:06 | 16.10036 | 74.11717 | 38912 ft | 506 kts | 117° |
| 2026-05-04 14:07 | 16.06877 | 74.18262 | 38912 ft | 506 kts | 117° |
| 2026-05-04 14:07 | 16.03724 | 74.24790 | 38906 ft | 506 kts | 117° |
| 2026-05-04 14:08 | 16.00566 | 74.31321 | 38923 ft | 505 kts | 117° |
| 2026-05-04 14:08 | 15.97410 | 74.37845 | 38918 ft | 505 kts | 117° |
| 2026-05-04 14:09 | 15.92670 | 74.47628 | 38929 ft | 506 kts | 117° |
| 2026-05-04 14:10 | 15.87898 | 74.57400 | 38947 ft | 506 kts | 120° |
| 2026-05-04 14:10 | 15.84007 | 74.63467 | 38974 ft | 504 kts | 129° |
| 2026-05-04 14:11 | 15.79289 | 74.68838 | 38959 ft | 504 kts | 136° |
| 2026-05-04 14:11 | 15.71989 | 74.76659 | 38973 ft | 501 kts | 135° |
| 2026-05-04 14:12 | 15.67145 | 74.81852 | 38917 ft | 500 kts | 135° |
| 2026-05-04 14:13 | 15.59885 | 74.89622 | 38871 ft | 499 kts | 135° |
| 2026-05-04 14:13 | 15.55055 | 74.94784 | 38864 ft | 499 kts | 135° |
| 2026-05-04 14:14 | 15.50229 | 74.99941 | 38852 ft | 498 kts | 135° |
| 2026-05-04 14:14 | 15.42998 | 75.07657 | 38889 ft | 496 kts | 135° |
| 2026-05-04 14:15 | 15.34198 | 75.17039 | 38879 ft | 495 kts | 135° |
| 2026-05-04 14:16 | 15.26993 | 75.24710 | 38863 ft | 495 kts | 135° |
| 2026-05-04 14:17 | 15.19808 | 75.32353 | 38856 ft | 495 kts | 135° |
| 2026-05-04 14:18 | 15.12601 | 75.40011 | 38852 ft | 495 kts | 135° |
| 2026-05-04 14:19 | 15.02962 | 75.50239 | 38849 ft | 497 kts | 136° |
| 2026-05-04 14:19 | 14.98128 | 75.55364 | 38865 ft | 498 kts | 136° |
| 2026-05-04 14:20 | 14.93287 | 75.60493 | 38866 ft | 498 kts | 136° |
| 2026-05-04 14:20 | 14.88437 | 75.65627 | 38870 ft | 498 kts | 136° |
| 2026-05-04 14:21 | 14.81171 | 75.73315 | 38867 ft | 499 kts | 136° |
| 2026-05-04 14:21 | 14.76322 | 75.78438 | 38874 ft | 498 kts | 136° |
| 2026-05-04 14:22 | 14.71476 | 75.83557 | 38864 ft | 498 kts | 136° |
| 2026-05-04 14:22 | 14.66630 | 75.88672 | 38861 ft | 498 kts | 136° |
| 2026-05-04 14:23 | 14.59358 | 75.96340 | 38853 ft | 498 kts | 136° |
| 2026-05-04 14:24 | 14.54451 | 76.01511 | 38856 ft | 502 kts | 136° |
| 2026-05-04 14:24 | 14.49643 | 76.06573 | 38860 ft | 494 kts | 136° |
| 2026-05-04 14:25 | 14.44811 | 76.11677 | 38860 ft | 495 kts | 134° |
| 2026-05-04 14:25 | 14.40864 | 76.17446 | 38861 ft | 498 kts | 119° |
| 2026-05-04 14:25 | 14.39448 | 76.20696 | 38862 ft | 499 kts | 111° |
| 2026-05-04 14:26 | 14.37669 | 76.27628 | 38871 ft | 501 kts | 104° |
| 2026-05-04 14:26 | 14.36101 | 76.34642 | 38876 ft | 502 kts | 104° |
| 2026-05-04 14:27 | 14.34518 | 76.41659 | 38870 ft | 502 kts | 104° |
| 2026-05-04 14:27 | 14.33732 | 76.45145 | 38687 ft | 497 kts | 104° |
| 2026-05-04 14:27 | 14.32953 | 76.48603 | 38455 ft | 494 kts | 104° |
| 2026-05-04 14:28 | 14.32174 | 76.52057 | 38179 ft | 494 kts | 104° |
| 2026-05-04 14:28 | 14.31396 | 76.55508 | 37916 ft | 495 kts | 104° |
| 2026-05-04 14:28 | 14.30612 | 76.58979 | 37655 ft | 497 kts | 104° |
| 2026-05-04 14:28 | 14.29829 | 76.62448 | 37350 ft | 498 kts | 104° |
| 2026-05-04 14:29 | 14.28248 | 76.69426 | 35668 ft | 505 kts | 104° |
| 2026-05-04 14:29 | 14.26622 | 76.76596 | 33443 ft | 520 kts | 104° |
| 2026-05-04 14:30 | 14.25800 | 76.80222 | 32590 ft | 518 kts | 104° |
| 2026-05-04 14:30 | 14.24985 | 76.83822 | 32024 ft | 511 kts | 104° |
| 2026-05-04 14:30 | 14.23399 | 76.90816 | 31215 ft | 492 kts | 104° |
| 2026-05-04 14:31 | 14.22429 | 76.94154 | 30818 ft | 482 kts | 114° |
| 2026-05-04 14:31 | 14.18794 | 76.99838 | 30055 ft | 475 kts | 137° |
| 2026-05-04 14:32 | 14.13475 | 77.03719 | 29202 ft | 466 kts | 153° |
| 2026-05-04 14:32 | 14.10658 | 77.05349 | 28763 ft | 461 kts | 153° |
| 2026-05-04 14:32 | 14.07894 | 77.06995 | 28334 ft | 457 kts | 152° |
| 2026-05-04 14:32 | 14.05179 | 77.08679 | 27909 ft | 454 kts | 150° |
| 2026-05-04 14:33 | 14.02496 | 77.10391 | 27488 ft | 452 kts | 150° |
| 2026-05-04 14:33 | 13.99842 | 77.12107 | 27093 ft | 449 kts | 150° |
| 2026-05-04 14:33 | 13.97211 | 77.13819 | 26683 ft | 446 kts | 150° |
| 2026-05-04 14:33 | 13.94602 | 77.15517 | 26291 ft | 443 kts | 150° |
| 2026-05-04 14:34 | 13.92006 | 77.17206 | 25891 ft | 440 kts | 150° |
| 2026-05-04 14:34 | 13.89432 | 77.18879 | 25498 ft | 437 kts | 150° |
| 2026-05-04 14:34 | 13.86869 | 77.20544 | 25118 ft | 434 kts | 150° |
| 2026-05-04 14:34 | 13.84328 | 77.22194 | 24742 ft | 432 kts | 149° |
| 2026-05-04 14:35 | 13.81794 | 77.23839 | 24373 ft | 429 kts | 150° |
| 2026-05-04 14:35 | 13.79281 | 77.25470 | 24006 ft | 426 kts | 150° |
| 2026-05-04 14:35 | 13.76785 | 77.27090 | 23640 ft | 423 kts | 150° |
| 2026-05-04 14:35 | 13.74300 | 77.28702 | 23313 ft | 421 kts | 150° |
| 2026-05-04 14:36 | 13.71833 | 77.30301 | 22959 ft | 418 kts | 150° |
| 2026-05-04 14:36 | 13.69381 | 77.31891 | 22545 ft | 415 kts | 149° |
| 2026-05-04 14:36 | 13.66949 | 77.33467 | 22152 ft | 412 kts | 149° |
| 2026-05-04 14:36 | 13.64533 | 77.35033 | 21752 ft | 409 kts | 149° |
| 2026-05-04 14:37 | 13.62133 | 77.36587 | 21359 ft | 406 kts | 149° |
| 2026-05-04 14:37 | 13.59757 | 77.38126 | 20987 ft | 403 kts | 149° |
| 2026-05-04 14:37 | 13.57435 | 77.39725 | 20604 ft | 401 kts | 145° |
| 2026-05-04 14:37 | 13.55203 | 77.41432 | 20226 ft | 398 kts | 144° |
| 2026-05-04 14:38 | 13.52989 | 77.43114 | 19855 ft | 395 kts | 145° |
| 2026-05-04 14:38 | 13.50787 | 77.44781 | 19492 ft | 392 kts | 145° |
| 2026-05-04 14:38 | 13.48601 | 77.46434 | 19128 ft | 389 kts | 145° |
| 2026-05-04 14:38 | 13.46424 | 77.48080 | 18788 ft | 386 kts | 144° |
| 2026-05-04 14:39 | 13.44268 | 77.49710 | 18428 ft | 384 kts | 144° |
| 2026-05-04 14:39 | 13.42154 | 77.51309 | 18058 ft | 381 kts | 144° |
| 2026-05-04 14:39 | 13.39999 | 77.52938 | 17643 ft | 379 kts | 144° |
| 2026-05-04 14:40 | 13.35792 | 77.56117 | 16874 ft | 374 kts | 144° |
| 2026-05-04 14:40 | 13.33738 | 77.57686 | 16483 ft | 372 kts | 141° |
| 2026-05-04 14:40 | 13.32010 | 77.59684 | 16110 ft | 370 kts | 122° |
| 2026-05-04 14:40 | 13.31044 | 77.62072 | 15743 ft | 366 kts | 103° |
| 2026-05-04 14:41 | 13.30857 | 77.64662 | 15332 ft | 353 kts | 89° |
| 2026-05-04 14:41 | 13.30934 | 77.67135 | 14985 ft | 340 kts | 88° |
| 2026-05-04 14:41 | 13.31020 | 77.71848 | 14170 ft | 321 kts | 89° |
| 2026-05-04 14:42 | 13.31062 | 77.76355 | 12958 ft | 314 kts | 89° |
| 2026-05-04 14:42 | 13.31076 | 77.78619 | 12243 ft | 314 kts | 89° |
| 2026-05-04 14:42 | 13.31090 | 77.80877 | 11395 ft | 318 kts | 89° |
| 2026-05-04 14:43 | 13.31104 | 77.83136 | 10532 ft | 322 kts | 89° |
| 2026-05-04 14:43 | 13.31118 | 77.85446 | 9732 ft | 325 kts | 89° |
| 2026-05-04 14:43 | 13.31130 | 77.87754 | 9110 ft | 319 kts | 89° |
| 2026-05-04 14:43 | 13.31137 | 77.89981 | 8711 ft | 307 kts | 89° |
| 2026-05-04 14:44 | 13.31140 | 77.92118 | 8459 ft | 291 kts | 89° |
| 2026-05-04 14:44 | 13.31140 | 77.94144 | 8206 ft | 276 kts | 89° |
| 2026-05-04 14:44 | 13.31135 | 77.96064 | 7968 ft | 263 kts | 89° |
| 2026-05-04 14:44 | 13.31120 | 77.97907 | 7722 ft | 253 kts | 89° |
| 2026-05-04 14:45 | 13.31019 | 77.99674 | 7410 ft | 246 kts | 103° |
| 2026-05-04 14:45 | 13.30247 | 78.01206 | 7211 ft | 243 kts | 133° |
| 2026-05-04 14:45 | 13.28831 | 78.02140 | 7124 ft | 246 kts | 161° |
| 2026-05-04 14:45 | 13.27130 | 78.02253 | 7007 ft | 249 kts | 191° |
| 2026-05-04 14:46 | 13.25587 | 78.01505 | 6919 ft | 247 kts | 221° |
| 2026-05-04 14:46 | 13.24541 | 78.00126 | 6841 ft | 246 kts | 239° |
| 2026-05-04 14:46 | 13.23645 | 77.98633 | 6685 ft | 249 kts | 239° |
| 2026-05-04 14:46 | 13.22730 | 77.97111 | 6564 ft | 247 kts | 239° |
| 2026-05-04 14:47 | 13.21843 | 77.95621 | 6502 ft | 243 kts | 239° |
| 2026-05-04 14:47 | 13.21035 | 77.94147 | 6424 ft | 230 kts | 251° |
| 2026-05-04 14:47 | 13.20690 | 77.92607 | 6383 ft | 211 kts | 266° |
| 2026-05-04 14:47 | 13.20637 | 77.91147 | 6309 ft | 202 kts | 272° |
| 2026-05-04 14:48 | 13.20655 | 77.89708 | 6167 ft | 203 kts | 272° |
| 2026-05-04 14:48 | 13.20654 | 77.88269 | 5870 ft | 200 kts | 272° |
| 2026-05-04 14:48 | 13.20660 | 77.86845 | 5593 ft | 199 kts | 272° |
| 2026-05-04 14:48 | 13.20662 | 77.85428 | 5344 ft | 198 kts | 272° |
| 2026-05-04 14:49 | 13.20667 | 77.84019 | 5099 ft | 196 kts | 273° |
| 2026-05-04 14:49 | 13.20670 | 77.82655 | 4858 ft | 183 kts | 272° |
| 2026-05-04 14:49 | 13.20672 | 77.81433 | 4639 ft | 159 kts | 273° |
| 2026-05-04 14:49 | 13.20675 | 77.80334 | 4499 ft | 151 kts | 274° |
| 2026-05-04 14:50 | 13.20678 | 77.79250 | 4312 ft | 152 kts | 274° |
| 2026-05-04 14:50 | 13.20682 | 77.78169 | 4120 ft | 151 kts | 273° |
| 2026-05-04 14:50 | 13.20684 | 77.77095 | 3935 ft | 151 kts | 273° |
| 2026-05-04 14:50 | 13.20687 | 77.76018 | 3743 ft | 151 kts | 271° |
| 2026-05-04 14:51 | 13.20684 | 77.74933 | 3568 ft | 154 kts | 270° |
| 2026-05-04 14:51 | 13.20690 | 77.73834 | 3332 ft | 154 kts | 268° |
| 2026-05-04 14:51 | 13.20694 | 77.72736 | 3124 ft | 154 kts | 267° |
| 2026-05-04 14:51 | 13.20691 | 77.71666 | 3017 ft | 135 kts | 269° |
| 2026-05-04 14:52 | 13.20695 | 77.70889 | 3016 ft | 88 kts | 270° |
| 2026-05-04 14:52 | 13.20705 | 77.70353 | 3016 ft | 63 kts | 270° |
| 2026-05-04 14:52 | 13.20704 | 77.69977 | 3016 ft | 41 kts | 270° |
| 2026-05-04 14:52 | 13.20707 | 77.69762 | 3016 ft | 24 kts | 271° |
| 2026-05-04 14:53 | 13.20688 | 77.69598 | 3020 ft | 24 kts | 250° |
| 2026-05-04 14:53 | 13.20649 | 77.69513 | 3016 ft | 7 kts | 242° |
| 2026-05-04 14:53 | 13.20637 | 77.69490 | 3015 ft | 0 kts | 242° |
| 2026-05-04 14:53 | 13.20624 | 77.69466 | 3015 ft | 8 kts | 235° |
| 2026-05-04 14:54 | 13.20570 | 77.69443 | 3016 ft | 4 kts | 162° |
| 2026-05-04 14:54 | 13.20543 | 77.69464 | 3016 ft | 7 kts | 119° |
| 2026-05-04 14:54 | 13.20538 | 77.69523 | 3016 ft | 11 kts | 88° |
| 2026-05-04 14:54 | 13.20540 | 77.69619 | 3016 ft | 16 kts | 89° |
| 2026-05-04 14:55 | 13.20537 | 77.69740 | 3017 ft | 12 kts | 92° |
| 2026-05-04 14:55 | 13.20537 | 77.69825 | 3016 ft | 14 kts | 89° |
| 2026-05-04 14:55 | 13.20537 | 77.69923 | 3016 ft | 14 kts | 90° |
| 2026-05-04 14:55 | 13.20537 | 77.70032 | 3017 ft | 16 kts | 91° |
| 2026-05-04 14:56 | 13.20535 | 77.70155 | 3017 ft | 18 kts | 90° |
| 2026-05-04 14:56 | 13.20534 | 77.70270 | 3017 ft | 16 kts | 91° |
| 2026-05-04 14:56 | 13.20533 | 77.70390 | 3016 ft | 15 kts | 90° |
| 2026-05-04 14:56 | 13.20532 | 77.70489 | 3016 ft | 15 kts | 90° |
| 2026-05-04 14:57 | 13.20530 | 77.70604 | 3016 ft | 17 kts | 90° |
| 2026-05-04 14:57 | 13.20529 | 77.70725 | 3016 ft | 17 kts | 90° |
| 2026-05-04 14:57 | 13.20528 | 77.70846 | 3016 ft | 14 kts | 90° |
| 2026-05-04 14:57 | 13.20528 | 77.70952 | 3016 ft | 14 kts | 90° |
| 2026-05-04 14:58 | 13.20527 | 77.71059 | 3016 ft | 16 kts | 90° |
| 2026-05-04 14:58 | 13.20526 | 77.71177 | 3016 ft | 17 kts | 90° |
| 2026-05-04 14:58 | 13.20525 | 77.71298 | 3016 ft | 16 kts | 90° |
| 2026-05-04 14:58 | 13.20524 | 77.71374 | 3016 ft | 17 kts | 90° |
| 2026-05-04 14:59 | 13.20523 | 77.71511 | 3016 ft | 15 kts | 90° |
| 2026-05-04 14:59 | 13.20522 | 77.71619 | 3017 ft | 16 kts | 90° |
| 2026-05-04 14:59 | 13.20517 | 77.71742 | 3017 ft | 8 kts | 113° |
| 2026-05-04 15:00 | 13.20480 | 77.71779 | 3017 ft | 9 kts | 158° |
| 2026-05-04 15:00 | 13.20414 | 77.71786 | 3016 ft | 9 kts | 181° |
| 2026-05-04 15:00 | 13.20344 | 77.71785 | 3016 ft | 8 kts | 180° |
| 2026-05-04 15:01 | 13.20238 | 77.71787 | 3016 ft | 6 kts | 172° |
| 2026-05-04 15:01 | 13.20211 | 77.71798 | 3016 ft | 2 kts | 139° |
| 2026-05-04 15:01 | 13.20201 | 77.71810 | 3016 ft | 4 kts | 123° |
| 2026-05-04 15:01 | 13.20173 | 77.71833 | 3016 ft | 5 kts | 165° |
| 2026-05-04 15:02 | 13.20145 | 77.71837 | 3016 ft | 5 kts | 177° |
| 2026-05-04 15:02 | 13.20124 | 77.71837 | 3016 ft | 3 kts | 180° |
| 2026-05-04 15:02 | 13.20105 | 77.71837 | 3016 ft | 2 kts | 180° |
| 2026-05-04 15:02 | 13.20091 | 77.71837 | 3016 ft | 2 kts | 180° |
| 2026-05-04 15:03 | 13.20086 | 77.71837 | 3016 ft | 0 kts | 180° |